createdAt,value
2022-10-09T00:01:52.373Z,100011.56
2022-10-09T00:04:23.568Z,100005.50
2022-10-09T00:06:53.204Z,100006.94
2022-10-09T00:09:22.255Z,100007.25
2022-10-09T00:11:51.074Z,100005.09
2022-10-09T00:14:19.348Z,100010.09
2022-10-09T00:16:47.727Z,100007.06
2022-10-09T00:19:17.503Z,100008.31
2022-10-09T00:21:47.283Z,100008.44
2022-10-09T00:24:17.628Z,100009.31
2022-10-09T00:26:49.781Z,100005.38
2022-10-09T00:29:17.886Z,100001.81
2022-10-09T00:31:46.828Z,100000.75
2022-10-09T00:34:16.948Z,99998.91
2022-10-09T00:36:48.287Z,99999.84
2022-10-09T00:39:19.023Z,99997.88
2022-10-09T00:41:50.109Z,99996.03
2022-10-09T00:44:54.691Z,100003.38
2022-10-09T00:47:29.713Z,100000.88
2022-10-09T00:50:06.460Z,100005.53
2022-10-09T00:52:37.858Z,100002.53
2022-10-09T00:55:08.424Z,100001.50
2022-10-09T00:57:39.460Z,99993.97
2022-10-09T01:00:12.955Z,99999.09
2022-10-09T01:02:41.621Z,99996.03
2022-10-09T01:05:12.552Z,100000.88
2022-10-09T01:07:49.617Z,100003.59
2022-10-09T01:10:28.129Z,99999.94
2022-10-09T01:13:12.398Z,100000.50
2022-10-09T01:15:45.915Z,100003.00
2022-10-09T01:18:23.346Z,99993.38
2022-10-09T01:20:54.330Z,100000.31
2022-10-09T01:23:50.695Z,99991.16
2022-10-09T01:26:33.889Z,99988.78
2022-10-09T01:29:08.043Z,99995.16
2022-10-09T01:31:41.082Z,99995.22
2022-10-09T01:34:10.347Z,99992.72
2022-10-09T01:36:41.645Z,99990.53
2022-10-09T01:39:13.965Z,99995.81
2022-10-09T01:41:43.843Z,99995.19
2022-10-09T01:44:22.364Z,99991.94
2022-10-09T01:46:51.360Z,99992.94
2022-10-09T01:49:41.701Z,99991.22
2022-10-09T01:52:20.919Z,99987.41
2022-10-09T01:55:01.049Z,99992.38
2022-10-09T01:57:37.039Z,99986.25
2022-10-09T02:00:11.595Z,99987.28
2022-10-09T02:02:42.243Z,99988.88
2022-10-09T02:05:12.569Z,99989.47
2022-10-09T02:07:41.256Z,99993.91
2022-10-09T02:10:10.805Z,99980.47
2022-10-09T02:12:45.430Z,99981.53
2022-10-09T02:15:16.069Z,99975.16
2022-10-09T02:17:49.048Z,99985.97
2022-10-09T02:20:24.235Z,99992.56
2022-10-09T02:22:58.144Z,99995.19
2022-10-09T02:25:29.098Z,99984.59
2022-10-09T02:27:59.309Z,99988.88
2022-10-09T02:30:45.606Z,99989.97
2022-10-09T02:33:13.690Z,99985.63
2022-10-09T02:35:42.545Z,99984.66
2022-10-09T02:38:11.287Z,99985.22
2022-10-09T02:40:39.411Z,99980.72
2022-10-09T02:43:08.060Z,99983.59
2022-10-09T02:45:39.290Z,99981.44
2022-10-09T02:48:07.430Z,99979.69
2022-10-09T02:50:36.819Z,99982.06
2022-10-09T02:53:04.895Z,99977.63
2022-10-09T02:55:33.517Z,99979.44
2022-10-09T02:58:01.666Z,99980.47
2022-10-09T03:00:30.045Z,99987.66
2022-10-09T03:03:02.148Z,99982.31
2022-10-09T03:05:30.558Z,99984.69
2022-10-09T03:07:58.949Z,99986.56
2022-10-09T03:10:27.251Z,99982.28
2022-10-09T03:12:55.693Z,99992.91
2022-10-09T03:15:24.978Z,99977.66
2022-10-09T03:17:53.307Z,99987.09
2022-10-09T03:20:22.983Z,99989.81
2022-10-09T03:22:51.898Z,99990.97
2022-10-09T03:25:20.551Z,99992.63
2022-10-09T03:27:48.719Z,99998.91
2022-10-09T03:30:17.333Z,99992.66
2022-10-09T03:32:45.987Z,99999.88
2022-10-09T03:35:14.584Z,99997.19
2022-10-09T03:37:44.420Z,99998.47
2022-10-09T03:40:13.078Z,99997.59
2022-10-09T03:42:41.288Z,99984.09
2022-10-09T03:45:11.548Z,99991.81
2022-10-09T03:47:40.426Z,99995.16
2022-10-09T03:50:11.228Z,99994.25
2022-10-09T03:52:41.459Z,99997.91
2022-10-09T03:55:13.034Z,100000.22
2022-10-09T03:57:41.318Z,100001.84
2022-10-09T04:00:11.509Z,99996.38
2022-10-09T04:02:39.974Z,99999.50
2022-10-09T04:05:09.270Z,99993.16
2022-10-09T04:07:37.814Z,99998.38
2022-10-09T04:10:07.295Z,99993.31
2022-10-09T04:12:37.150Z,99994.88
2022-10-09T04:15:05.774Z,99999.84
2022-10-09T04:17:34.002Z,99997.88
2022-10-09T04:20:02.171Z,99995.97
2022-10-09T04:22:30.731Z,99995.88
2022-10-09T04:24:59.095Z,99989.78
2022-10-09T04:27:29.805Z,99979.44
2022-10-09T04:29:59.590Z,99984.69
2022-10-09T04:32:27.988Z,99984.91
2022-10-09T04:34:57.222Z,99981.56
2022-10-09T04:37:28.277Z,99985.97
2022-10-09T04:39:56.607Z,99983.34
2022-10-09T04:42:25.004Z,99987.50
2022-10-09T04:44:53.372Z,99980.66
2022-10-09T04:47:23.569Z,99992.13
2022-10-09T04:49:51.799Z,99988.78
2022-10-09T04:52:20.234Z,99985.97
2022-10-09T04:54:48.602Z,99988.41
2022-10-09T04:57:17.017Z,99982.41
2022-10-09T04:59:45.413Z,99988.44
2022-10-09T05:02:15.660Z,99983.34
2022-10-09T05:04:47.742Z,99988.88
2022-10-09T05:07:17.233Z,99986.22
2022-10-09T05:09:45.870Z,99984.50
2022-10-09T05:12:14.063Z,99978.56
2022-10-09T05:14:42.245Z,99971.63
2022-10-09T05:17:14.122Z,99972.56
2022-10-09T05:19:45.009Z,99974.53
2022-10-09T05:22:13.268Z,99973.72
2022-10-09T05:24:41.360Z,99982.75
2022-10-09T05:27:09.748Z,99980.53
2022-10-09T05:29:37.923Z,99977.06
2022-10-09T05:32:06.254Z,99987.31
2022-10-09T05:34:35.828Z,99978.78
2022-10-09T05:37:05.716Z,99983.84
2022-10-09T05:39:36.004Z,99994.19
2022-10-09T05:42:06.003Z,99993.47
2022-10-09T05:44:34.519Z,99989.94
2022-10-09T05:47:02.686Z,99988.19
2022-10-09T05:49:31.017Z,99989.22
2022-10-09T05:51:59.492Z,99992.50
2022-10-09T05:54:29.771Z,99988.22
2022-10-09T05:56:58.021Z,99993.81
2022-10-09T05:59:26.470Z,99988.50
2022-10-09T06:01:55.049Z,99986.50
2022-10-09T06:04:25.512Z,99985.44
2022-10-09T06:06:54.069Z,99983.59
2022-10-09T06:09:24.427Z,99983.47
2022-10-09T06:11:56.249Z,99987.06
2022-10-09T06:14:24.682Z,99986.13
2022-10-09T06:16:53.626Z,99976.84
2022-10-09T06:19:23.230Z,99976.81
2022-10-09T06:21:52.159Z,99974.31
2022-10-09T06:24:27.376Z,99976.69
2022-10-09T06:26:59.014Z,99979.25
2022-10-09T06:29:27.358Z,99973.81
2022-10-09T06:31:56.319Z,99970.78
2022-10-09T06:34:25.412Z,99981.53
2022-10-09T06:36:53.797Z,99986.34
2022-10-09T06:39:22.816Z,99987.88
2022-10-09T06:41:51.249Z,99987.69
2022-10-09T06:44:20.911Z,99985.03
2022-10-09T06:46:51.032Z,99987.59
2022-10-09T06:49:19.429Z,99993.00
2022-10-09T06:51:47.851Z,100001.63
2022-10-09T06:54:17.555Z,99986.84
2022-10-09T06:56:46.051Z,99996.97
2022-10-09T06:59:15.596Z,99998.41
2022-10-09T07:01:45.697Z,99998.22
2022-10-09T07:04:17.939Z,100004.03
2022-10-09T07:06:48.629Z,99997.81
2022-10-09T07:09:17.900Z,99999.88
2022-10-09T07:11:49.534Z,100010.00
2022-10-09T07:14:21.404Z,99997.50
2022-10-09T07:16:53.747Z,100008.22
2022-10-09T07:19:24.347Z,100001.19
2022-10-09T07:21:53.686Z,100001.34
2022-10-09T07:24:24.818Z,100009.56
2022-10-09T07:26:55.367Z,100012.75
2022-10-09T07:29:26.042Z,100010.44
2022-10-09T07:31:55.983Z,100014.16
2022-10-09T07:34:24.389Z,100018.22
2022-10-09T07:36:52.979Z,100019.44
2022-10-09T07:39:21.707Z,100022.47
2022-10-09T07:41:52.563Z,100028.22
2022-10-09T07:44:20.761Z,100026.59
2022-10-09T07:46:51.521Z,100026.03
2022-10-09T07:49:21.743Z,100020.19
2022-10-09T07:51:50.187Z,100026.44
2022-10-09T07:54:18.656Z,100017.88
2022-10-09T07:56:47.212Z,100011.84
2022-10-09T07:59:17.207Z,100012.88
2022-10-09T08:01:45.695Z,100019.31
2022-10-09T08:04:14.273Z,100017.75
2022-10-09T08:06:44.362Z,100013.50
2022-10-09T08:09:14.350Z,100024.75
2022-10-09T08:11:42.520Z,100013.88
2022-10-09T08:14:18.223Z,100014.53
2022-10-09T08:16:47.535Z,100013.28
2022-10-09T08:19:15.711Z,100007.19
2022-10-09T08:21:45.496Z,100005.13
2022-10-09T08:24:14.354Z,100002.88
2022-10-09T08:26:43.201Z,99993.34
2022-10-09T08:29:14.177Z,99989.16
2022-10-09T08:31:42.739Z,99984.50
2022-10-09T08:34:12.279Z,99990.84
2022-10-09T08:36:40.809Z,99990.00
2022-10-09T08:39:10.809Z,99987.75
2022-10-09T08:41:48.348Z,99983.28
2022-10-09T08:44:20.449Z,99977.25
2022-10-09T08:46:55.823Z,99971.78
2022-10-09T08:49:30.331Z,99971.03
2022-10-09T08:52:17.353Z,99962.78
2022-10-09T08:54:47.466Z,99963.94
2022-10-09T08:57:18.206Z,99959.84
2022-10-09T08:59:47.067Z,99957.09
2022-10-09T09:02:33.493Z,99954.31
2022-10-09T09:05:13.431Z,99944.22
2022-10-09T09:07:50.799Z,99939.50
2022-10-09T09:10:36.756Z,99930.75
2022-10-09T09:13:17.375Z,99932.91
2022-10-09T09:15:55.522Z,99933.53
2022-10-09T09:18:41.977Z,99924.28
2022-10-09T09:21:19.294Z,99910.59
2022-10-09T09:23:49.071Z,99905.94
2022-10-09T09:26:21.683Z,99901.91
2022-10-09T09:28:55.037Z,99897.81
2022-10-09T09:31:28.247Z,99908.47
2022-10-09T09:34:04.541Z,99902.56
2022-10-09T09:36:37.223Z,99907.91
2022-10-09T09:40:07.774Z,99894.16
2022-10-09T09:42:00.997Z,99894.16
2022-10-09T09:44:34.977Z,99891.03
2022-10-09T09:47:03.963Z,99880.13
2022-10-09T09:49:32.368Z,99885.09
2022-10-09T09:52:02.866Z,99872.59
2022-10-09T09:54:31.989Z,99875.47
2022-10-09T09:57:21.867Z,99875.50
2022-10-09T09:59:50.601Z,99863.00
2022-10-09T10:02:21.607Z,99863.38
2022-10-09T10:04:52.259Z,99855.75
2022-10-09T10:07:36.949Z,99855.22
2022-10-09T10:10:07.493Z,99856.34
2022-10-09T10:12:43.697Z,99847.84
2022-10-09T10:15:21.605Z,99837.19
2022-10-09T10:17:51.839Z,99836.03
2022-10-09T10:20:20.518Z,99831.97
2022-10-09T10:22:53.641Z,99823.09
2022-10-09T10:25:26.673Z,99833.28
2022-10-09T10:28:03.653Z,99827.38
2022-10-09T10:30:32.957Z,99821.78
2022-10-09T10:33:10.412Z,99815.13
2022-10-09T10:35:42.896Z,99820.34
2022-10-09T10:38:15.685Z,99812.94
2022-10-09T10:40:50.793Z,99807.69
2022-10-09T10:43:31.995Z,99795.25
2022-10-09T10:46:06.576Z,99799.91
2022-10-09T10:48:41.552Z,99787.25
2022-10-09T10:51:32.100Z,99787.19
2022-10-09T10:54:11.738Z,99788.31
2022-10-09T10:56:45.084Z,99796.44
2022-10-09T10:59:32.609Z,99787.81
2022-10-09T11:02:32.039Z,99788.50
2022-10-09T11:05:14.475Z,99777.03
2022-10-09T11:07:57.798Z,99764.59
2022-10-09T11:10:37.423Z,99769.09
2022-10-09T11:13:14.299Z,99769.06
2022-10-09T11:15:54.163Z,99760.41
2022-10-09T11:18:37.204Z,99757.06
2022-10-09T11:21:17.393Z,99748.19
2022-10-09T11:23:59.507Z,99755.03
2022-10-09T11:26:37.983Z,99746.75
2022-10-09T11:29:10.811Z,99734.75
2022-10-09T11:31:46.888Z,99726.84
2022-10-09T11:34:21.489Z,99728.75
2022-10-09T11:36:51.664Z,99722.19
2022-10-09T11:39:23.941Z,99712.88
2022-10-09T11:41:57.185Z,99709.38
2022-10-09T11:44:40.212Z,99712.00
2022-10-09T11:47:21.185Z,99710.38
2022-10-09T11:50:09.500Z,99699.97
2022-10-09T11:52:50.816Z,99701.81
2022-10-09T11:55:22.585Z,99696.56
2022-10-09T11:57:51.616Z,99694.97
2022-10-09T12:00:38.406Z,99692.22
2022-10-09T12:03:09.498Z,99680.31
2022-10-09T12:05:42.690Z,99677.63
2022-10-09T12:08:18.305Z,99677.03
2022-10-09T12:10:56.367Z,99672.50
2022-10-09T12:13:42.955Z,99666.66
2022-10-09T12:16:30.718Z,99654.28
2022-10-09T12:19:05.941Z,99645.16
2022-10-09T12:21:39.774Z,99652.00
2022-10-09T12:24:09.169Z,99644.88
2022-10-09T12:26:37.886Z,99654.25
2022-10-09T12:29:07.152Z,99640.84
2022-10-09T12:31:38.576Z,99630.28
2022-10-09T12:34:19.847Z,99631.66
2022-10-09T12:36:48.318Z,99625.84
2022-10-09T12:39:22.648Z,99625.53
2022-10-09T12:41:54.014Z,99626.03
2022-10-09T12:44:28.523Z,99628.84
2022-10-09T12:47:03.362Z,99631.41
2022-10-09T12:49:33.238Z,99622.63
2022-10-09T12:52:02.152Z,99612.78
2022-10-09T12:54:32.951Z,99605.75
2022-10-09T12:57:03.035Z,99605.09
2022-10-09T12:59:31.376Z,99606.91
2022-10-09T13:02:01.612Z,99595.69
2022-10-09T13:04:36.195Z,99598.50
2022-10-09T13:07:09.159Z,99594.72
2022-10-09T13:09:39.981Z,99582.25
2022-10-09T13:12:11.942Z,99579.03
2022-10-09T13:14:45.751Z,99579.63
2022-10-09T13:17:25.694Z,99583.47
2022-10-09T13:19:58.609Z,99564.94
2022-10-09T13:22:30.033Z,99571.16
2022-10-09T13:25:01.535Z,99561.72
2022-10-09T13:27:32.723Z,99562.47
2022-10-09T13:30:02.257Z,99561.66
2022-10-09T13:32:32.746Z,99559.38
2022-10-09T13:35:02.900Z,99557.59
2022-10-09T13:37:31.579Z,99542.47
2022-10-09T13:40:01.226Z,99550.28
2022-10-09T13:42:33.791Z,99547.31
2022-10-09T13:45:02.350Z,99536.63
2022-10-09T13:47:30.947Z,99533.44
2022-10-09T13:50:01.737Z,99537.91
2022-10-09T13:52:31.706Z,99531.81
2022-10-09T13:55:00.169Z,99518.91
2022-10-09T13:57:29.266Z,99526.53
2022-10-09T13:59:57.384Z,99530.19
2022-10-09T14:02:25.537Z,99512.44
2022-10-09T14:04:54.274Z,99509.31
2022-10-09T14:07:22.603Z,99503.72
2022-10-09T14:09:52.644Z,99505.81
2022-10-09T14:12:21.045Z,99492.94
2022-10-09T14:14:49.822Z,99492.50
2022-10-09T14:17:18.342Z,99492.13
2022-10-09T14:19:46.972Z,99477.41
2022-10-09T14:22:15.342Z,99494.78
2022-10-09T14:24:44.031Z,99489.06
2022-10-09T14:27:14.341Z,99496.34
2022-10-09T14:29:43.408Z,99486.91
2022-10-09T14:32:12.369Z,99482.47
2022-10-09T14:34:41.424Z,99473.16
2022-10-09T14:37:18.876Z,99472.69
2022-10-09T14:39:58.619Z,99474.66
2022-10-09T14:42:28.981Z,99455.16
2022-10-09T14:44:57.501Z,99460.69
2022-10-09T14:47:25.929Z,99455.94
2022-10-09T14:49:54.676Z,99454.13
2022-10-09T14:52:23.942Z,99456.38
2022-10-09T14:54:55.741Z,99452.44
2022-10-09T14:57:24.118Z,99439.56
2022-10-09T14:59:54.327Z,99443.78
2022-10-09T15:02:22.562Z,99443.13
2022-10-09T15:04:56.682Z,99437.94
2022-10-09T15:07:28.447Z,99436.41
2022-10-09T15:09:58.629Z,99434.34
2022-10-09T15:12:29.288Z,99430.50
2022-10-09T15:14:59.262Z,99431.03
2022-10-09T15:17:27.965Z,99427.84
2022-10-09T15:20:00.418Z,99422.03
2022-10-09T15:22:28.832Z,99424.66
2022-10-09T15:24:57.499Z,99409.44
2022-10-09T15:27:30.427Z,99410.31
2022-10-09T15:30:00.892Z,99405.00
2022-10-09T15:32:30.597Z,99399.16
2022-10-09T15:34:58.940Z,99388.63
2022-10-09T15:37:27.359Z,99389.88
2022-10-09T15:39:56.359Z,99387.94
2022-10-09T15:42:25.400Z,99378.84
2022-10-09T15:44:54.181Z,99383.28
2022-10-09T15:47:49.446Z,99373.25
2022-10-09T15:50:12.783Z,99377.31
2022-10-09T15:52:41.857Z,99369.00
2022-10-09T15:55:10.592Z,99362.81
2022-10-09T15:57:38.833Z,99362.59
2022-10-09T16:00:08.315Z,99360.81
2022-10-09T16:02:41.511Z,99359.44
2022-10-09T16:05:12.277Z,99353.66
2022-10-09T16:07:41.469Z,99352.88
2022-10-09T16:10:10.720Z,99355.41
2022-10-09T16:12:39.520Z,99350.38
2022-10-09T16:15:09.400Z,99360.28
2022-10-09T16:17:39.734Z,99350.41
2022-10-09T16:20:11.471Z,99350.25
2022-10-09T16:22:39.959Z,99345.28
2022-10-09T16:25:09.623Z,99346.56
2022-10-09T16:27:38.781Z,99343.06
2022-10-09T16:30:08.663Z,99349.03
2022-10-09T16:32:40.152Z,99352.22
2022-10-09T16:35:09.667Z,99348.88
2022-10-09T16:37:38.102Z,99356.81
2022-10-09T16:40:07.172Z,99358.13
2022-10-09T16:42:36.878Z,99356.63
2022-10-09T16:45:07.608Z,99358.06
2022-10-09T16:47:37.033Z,99361.19
2022-10-09T16:50:08.244Z,99357.06
2022-10-09T16:52:36.363Z,99360.81
2022-10-09T16:55:05.230Z,99363.19
2022-10-09T16:57:33.653Z,99359.78
2022-10-09T17:00:03.915Z,99371.28
2022-10-09T17:02:32.302Z,99362.66
2022-10-09T17:05:00.891Z,99362.69
2022-10-09T17:07:31.570Z,99362.53
2022-10-09T17:10:01.017Z,99358.13
2022-10-09T17:12:31.050Z,99361.34
2022-10-09T17:14:59.677Z,99360.50
2022-10-09T17:17:28.124Z,99362.31
2022-10-09T17:19:56.655Z,99361.75
2022-10-09T17:22:25.350Z,99355.06
2022-10-09T17:25:03.420Z,99360.88
2022-10-09T17:27:31.873Z,99360.09
2022-10-09T17:30:00.287Z,99363.88
2022-10-09T17:32:28.913Z,99359.66
2022-10-09T17:35:01.257Z,99362.19
2022-10-09T17:37:31.994Z,99366.94
2022-10-09T17:40:01.827Z,99362.38
2022-10-09T17:42:30.365Z,99363.81
2022-10-09T17:44:58.587Z,99358.22
2022-10-09T17:47:26.731Z,99357.69
2022-10-09T17:49:55.507Z,99355.34
2022-10-09T17:52:24.842Z,99349.28
2022-10-09T17:54:54.433Z,99352.47
2022-10-09T17:57:26.474Z,99352.72
2022-10-09T17:59:55.496Z,99344.34
2022-10-09T18:02:23.880Z,99346.56
2022-10-09T18:04:57.443Z,99348.38
2022-10-09T18:07:26.064Z,99348.22
2022-10-09T18:09:54.617Z,99349.31
2022-10-09T18:12:25.893Z,99344.59
2022-10-09T18:14:54.336Z,99353.16
2022-10-09T18:17:23.278Z,99348.22
2022-10-09T18:19:51.950Z,99349.44
2022-10-09T18:22:20.279Z,99340.69
2022-10-09T18:24:48.805Z,99340.50
2022-10-09T18:27:17.141Z,99334.88
2022-10-09T18:29:49.004Z,99335.50
2022-10-09T18:32:17.784Z,99340.69
2022-10-09T18:34:46.707Z,99337.06
2022-10-09T18:37:15.448Z,99337.19
2022-10-09T18:39:44.591Z,99335.16
2022-10-09T18:42:12.791Z,99334.88
2022-10-09T18:44:43.214Z,99328.22
2022-10-09T18:47:17.177Z,99322.22
2022-10-09T18:49:50.158Z,99324.03
2022-10-09T18:52:21.887Z,99321.50
2022-10-09T18:54:54.151Z,99320.41
2022-10-09T18:57:24.670Z,99317.84
2022-10-09T18:59:55.545Z,99314.47
2022-10-09T19:02:27.082Z,99308.94
2022-10-09T19:04:56.157Z,99310.50
2022-10-09T19:07:25.037Z,99310.19
2022-10-09T19:09:57.113Z,99305.22
2022-10-09T19:12:26.730Z,99305.13
2022-10-09T19:14:55.092Z,99302.75
2022-10-09T19:17:25.354Z,99296.25
2022-10-09T19:19:53.724Z,99293.25
2022-10-09T19:22:24.071Z,99294.31
2022-10-09T19:24:52.597Z,99291.22
2022-10-09T19:27:25.748Z,99294.13
2022-10-09T19:29:55.001Z,99290.50
2022-10-09T19:32:24.891Z,99293.28
2022-10-09T19:34:54.789Z,99285.84
2022-10-09T19:37:26.112Z,99291.06
2022-10-09T19:39:58.275Z,99300.06
2022-10-09T19:42:26.727Z,99288.72
2022-10-09T19:44:56.300Z,99287.22
2022-10-09T19:47:26.352Z,99287.13
2022-10-09T19:49:54.437Z,99291.59
2022-10-09T19:52:23.344Z,99293.13
2022-10-09T19:54:51.728Z,99286.03
2022-10-09T19:57:20.048Z,99277.53
2022-10-09T19:59:49.502Z,99283.91
2022-10-09T20:02:18.416Z,99282.72
2022-10-09T20:04:53.311Z,99283.19
2022-10-09T20:07:21.802Z,99276.56
2022-10-09T20:09:50.283Z,99280.63
2022-10-09T20:12:19.417Z,99279.84
2022-10-09T20:14:47.964Z,99272.22
2022-10-09T20:17:17.371Z,99284.75
2022-10-09T20:19:46.053Z,99281.13
2022-10-09T20:22:16.135Z,99282.00
2022-10-09T20:24:46.725Z,99278.69
2022-10-09T20:27:14.979Z,99277.81
2022-10-09T20:29:45.348Z,99275.22
2022-10-09T20:32:13.712Z,99277.66
2022-10-09T20:34:42.574Z,99273.41
2022-10-09T20:37:10.878Z,99276.16
2022-10-09T20:39:41.156Z,99277.75
2022-10-09T20:42:10.003Z,99284.06
2022-10-09T20:44:38.363Z,99277.53
2022-10-09T20:47:07.048Z,99273.31
2022-10-09T20:49:35.365Z,99283.00
2022-10-09T20:52:07.536Z,99282.84
2022-10-09T20:54:35.796Z,99276.88
2022-10-09T20:57:05.575Z,99266.44
2022-10-09T20:59:34.153Z,99272.75
2022-10-09T21:02:02.340Z,99276.94
2022-10-09T21:04:31.827Z,99277.13
2022-10-09T21:07:00.260Z,99275.81
2022-10-09T21:09:33.109Z,99275.59
2022-10-09T21:12:02.535Z,99275.44
2022-10-09T21:14:32.535Z,99274.50
2022-10-09T21:17:01.151Z,99271.94
2022-10-09T21:19:29.549Z,99268.94
2022-10-09T21:21:57.873Z,99272.50
2022-10-09T21:24:27.868Z,99269.22
2022-10-09T21:26:58.771Z,99271.38
2022-10-09T21:29:27.445Z,99267.41
2022-10-09T21:31:57.562Z,99269.13
2022-10-09T21:34:26.164Z,99274.75
2022-10-09T21:37:19.953Z,99266.97
2022-10-09T21:39:44.659Z,99271.72
2022-10-09T21:42:13.175Z,99266.75
2022-10-09T21:44:41.616Z,99270.91
2022-10-09T21:47:19.457Z,99264.56
2022-10-09T21:49:48.905Z,99260.50
2022-10-09T21:52:17.390Z,99266.78
2022-10-09T21:54:52.643Z,99267.28
2022-10-09T21:57:22.207Z,99256.22
2022-10-09T21:59:50.683Z,99264.88
2022-10-09T22:02:20.357Z,99257.38
2022-10-09T22:04:48.705Z,99251.69
2022-10-09T22:07:17.425Z,99245.31
2022-10-09T22:09:45.913Z,99254.81
2022-10-09T22:12:14.271Z,99254.31
2022-10-09T22:14:42.686Z,99237.34
2022-10-09T22:17:11.261Z,99251.25
2022-10-09T22:19:41.737Z,99241.28
2022-10-09T22:22:10.363Z,99246.03
2022-10-09T22:24:39.060Z,99243.00
2022-10-09T22:27:07.563Z,99237.78
2022-10-09T22:29:36.449Z,99229.06
2022-10-09T22:32:05.453Z,99233.59
2022-10-09T22:34:34.306Z,99233.16
2022-10-09T22:37:04.506Z,99225.22
2022-10-09T22:39:32.863Z,99224.81
2022-10-09T22:42:03.404Z,99221.84
2022-10-09T22:44:31.875Z,99216.25
2022-10-09T22:47:00.251Z,99208.91
2022-10-09T22:49:28.794Z,99205.25
2022-10-09T22:51:57.111Z,99201.50
2022-10-09T22:54:27.127Z,99205.00
2022-10-09T22:56:55.786Z,99195.09
2022-10-09T22:59:24.296Z,99195.69
2022-10-09T23:01:55.209Z,99197.41
2022-10-09T23:04:24.817Z,99196.88
2022-10-09T23:06:55.316Z,99196.91
2022-10-09T23:09:25.464Z,99184.66
2022-10-09T23:11:55.613Z,99191.00
2022-10-09T23:14:27.049Z,99185.38
2022-10-09T23:16:56.768Z,99183.06
2022-10-09T23:19:25.095Z,99185.63
2022-10-09T23:21:53.621Z,99180.25
2022-10-09T23:24:22.097Z,99174.78
2022-10-09T23:26:52.703Z,99173.19
2022-10-09T23:29:23.033Z,99177.69
2022-10-09T23:31:54.230Z,99166.53
2022-10-09T23:34:25.406Z,99169.28
2022-10-09T23:36:54.124Z,99167.91
2022-10-09T23:39:22.341Z,99176.00
2022-10-09T23:41:52.137Z,99169.09
2022-10-09T23:44:22.563Z,99177.88
2022-10-09T23:46:51.015Z,99175.22
2022-10-09T23:49:24.954Z,99169.13
2022-10-09T23:51:53.901Z,99180.53
2022-10-09T23:54:22.410Z,99173.28
2022-10-09T23:56:50.655Z,99176.00
2022-10-09T23:59:19.109Z,99173.28
